Time;durP1;ratioP1;P1;durP2;ratioP2;P2;SDS_P1;SDS_P2;PMS_P1;PMS_P2;Temp;Humidity;BMP_temperature;BMP_pressure;BME280_temperature;BME280_humidity;BME280_pressure;Samples;Min_cycle;Max_cycle;Signal;HPM_P1;HPM_P2
2024/03/21 00:02:18;;;;;;;;;33.33;29.00;;;;;;;;5080701;27;45344;-53
2024/03/21 00:04:43;;;;;;;;;28.00;24.00;;;;;;;;5087114;27;45472;-53
2024/03/21 00:07:09;;;;;;;;;25.00;24.33;;;;;;;;5080742;27;45642;-54
2024/03/21 00:09:34;;;;;;;;;30.33;26.33;;;;;;;;5077299;27;45267;-54
2024/03/21 00:11:59;;;;;;;;;26.33;25.00;;;;;;;;5079204;27;45421;-54
2024/03/21 00:14:25;;;;;;;;;26.67;25.00;;;;;;;;5076669;27;45432;-54
2024/03/21 00:16:51;;;;;;;;;24.67;22.00;;;;;;;;5077829;28;46065;-53
2024/03/21 00:19:17;;;;;;;;;24.00;21.33;;;;;;;;5083053;27;45477;-53
2024/03/21 00:21:42;;;;;;;;;30.00;22.67;;;;;;;;5078950;28;45631;-53
2024/03/21 00:24:07;;;;;;;;;19.33;19.33;;;;;;;;5084782;27;45496;-53
2024/03/21 00:26:33;;;;;;;;;27.00;21.67;;;;;;;;5079191;27;45426;-54
2024/03/21 00:28:58;;;;;;;;;25.33;23.33;;;;;;;;5078226;27;45347;-53
2024/03/21 00:31:24;;;;;;;;;24.67;22.33;;;;;;;;5078478;27;45354;-54
2024/03/21 00:33:49;;;;;;;;;21.00;20.33;;;;;;;;5074105;27;45270;-54
2024/03/21 00:36:14;;;;;;;;;29.00;24.00;;;;;;;;5091221;27;46530;-53
2024/03/21 00:38:40;;;;;;;;;28.00;28.00;;;;;;;;5083303;27;45421;-54
2024/03/21 00:41:05;;;;;;;;;31.00;27.33;;;;;;;;5082619;27;45472;-54
2024/03/21 00:43:30;;;;;;;;;24.33;24.33;;;;;;;;5095087;27;45765;-53
2024/03/21 00:45:56;;;;;;;;;25.67;23.33;;;;;;;;5094987;27;46439;-53
2024/03/21 00:48:21;;;;;;;;;28.33;24.00;;;;;;;;5083718;27;45349;-53
2024/03/21 00:50:46;;;;;;;;;22.67;20.33;;;;;;;;5084584;27;45200;-53
2024/03/21 00:53:11;;;;;;;;;23.00;22.00;;;;;;;;5088128;27;45377;-54
2024/03/21 00:55:36;;;;;;;;;27.33;22.67;;;;;;;;5086444;27;46468;-53
2024/03/21 00:58:02;;;;;;;;;30.00;25.00;;;;;;;;5089561;27;45325;-54
2024/03/21 01:00:27;;;;;;;;;27.00;24.00;;;;;;;;5085181;27;45415;-53
2024/03/21 01:02:52;;;;;;;;;23.67;21.00;;;;;;;;5089825;27;45227;-54
2024/03/21 01:05:18;;;;;;;;;21.33;20.00;;;;;;;;5089669;27;45508;-53
2024/03/21 01:07:45;;;;;;;;;27.33;24.33;;;;;;;;5091798;27;45349;-53
2024/03/21 01:10:11;;;;;;;;;22.67;22.33;;;;;;;;5093730;27;45352;-53
2024/03/21 01:12:36;;;;;;;;;26.00;22.67;;;;;;;;5089493;27;45294;-53
2024/03/21 01:15:01;;;;;;;;;34.00;25.67;;;;;;;;5095011;27;45343;-52
2024/03/21 01:17:26;;;;;;;;;25.00;23.33;;;;;;;;5085889;27;45401;-54
2024/03/21 01:19:51;;;;;;;;;30.67;28.00;;;;;;;;5088786;27;45411;-53
2024/03/21 01:22:17;;;;;;;;;25.33;20.67;;;;;;;;5091566;27;45317;-53
2024/03/21 01:24:45;;;;;;;;;25.00;22.33;;;;;;;;5091158;27;45341;-53
2024/03/21 01:27:11;;;;;;;;;27.00;22.67;;;;;;;;5087829;27;45433;-53
2024/03/21 01:29:36;;;;;;;;;28.33;24.67;;;;;;;;5091196;27;45402;-52
2024/03/21 01:32:01;;;;;;;;;26.33;26.33;;;;;;;;5089543;27;45348;-53
2024/03/21 01:34:26;;;;;;;;;29.00;26.00;;;;;;;;5084507;27;45445;-53
2024/03/21 01:36:53;;;;;;;;;25.33;23.00;;;;;;;;5085453;27;45460;-53
2024/03/21 01:39:19;;;;;;;;;30.00;24.67;;;;;;;;5085858;27;45295;-53
2024/03/21 01:41:44;;;;;;;;;11.33;11.00;;;;;;;;5093794;27;45602;-53
2024/03/21 01:44:16;;;;;;;;;30.67;27.67;;;;;;;;5086113;27;45485;-53
2024/03/21 01:46:42;;;;;;;;;24.67;22.00;;;;;;;;5089662;27;45372;-53
2024/03/21 01:49:08;;;;;;;;;25.33;23.67;;;;;;;;5087663;27;45201;-53
2024/03/21 01:51:33;;;;;;;;;24.00;21.67;;;;;;;;5092962;27;45381;-53
2024/03/21 01:53:58;;;;;;;;;28.33;25.33;;;;;;;;5087944;27;46158;-53
2024/03/21 01:56:24;;;;;;;;;27.00;23.33;;;;;;;;5085520;27;45380;-53
2024/03/21 01:58:49;;;;;;;;;27.00;22.67;;;;;;;;5088613;27;45550;-54
2024/03/21 02:01:16;;;;;;;;;24.00;21.00;;;;;;;;5084016;27;45314;-52
2024/03/21 02:03:42;;;;;;;;;19.67;19.00;;;;;;;;5083430;27;45537;-53
2024/03/21 02:06:07;;;;;;;;;19.67;18.67;;;;;;;;5091733;27;45343;-53
2024/03/21 02:08:32;;;;;;;;;23.67;22.00;;;;;;;;5090339;27;45403;-53
2024/03/21 02:10:58;;;;;;;;;23.00;21.67;;;;;;;;5088655;27;45391;-53
2024/03/21 02:13:23;;;;;;;;;22.33;20.33;;;;;;;;5086716;27;46366;-50
2024/03/21 02:15:48;;;;;;;;;23.00;19.67;;;;;;;;5087062;27;45454;-53
2024/03/21 02:18:13;;;;;;;;;21.00;19.33;;;;;;;;5090479;27;45346;-53
2024/03/21 02:20:38;;;;;;;;;21.67;20.67;;;;;;;;5086163;27;45309;-53
2024/03/21 02:23:04;;;;;;;;;15.67;15.00;;;;;;;;5087230;27;45563;-53
2024/03/21 02:25:29;;;;;;;;;20.33;19.67;;;;;;;;5084566;27;45465;-54
2024/03/21 02:27:55;;;;;;;;;23.00;20.33;;;;;;;;5090450;27;45388;-54
2024/03/21 02:30:20;;;;;;;;;20.00;16.33;;;;;;;;5083201;27;45630;-54
2024/03/21 02:32:45;;;;;;;;;19.67;18.67;;;;;;;;5079944;27;45543;-53
2024/03/21 02:35:10;;;;;;;;;18.00;16.33;;;;;;;;5082877;27;45377;-54
2024/03/21 02:37:35;;;;;;;;;20.00;20.00;;;;;;;;5091234;27;46360;-53
2024/03/21 02:40:00;;;;;;;;;23.00;20.33;;;;;;;;5083413;27;45405;-53
2024/03/21 02:42:26;;;;;;;;;18.67;17.00;;;;;;;;5082439;27;48350;-54
2024/03/21 02:44:51;;;;;;;;;24.00;21.00;;;;;;;;5082875;27;45414;-54
2024/03/21 02:47:17;;;;;;;;;20.00;19.00;;;;;;;;5088049;27;45451;-51
2024/03/21 02:49:43;;;;;;;;;24.67;21.33;;;;;;;;5095468;27;45309;-53
2024/03/21 02:52:08;;;;;;;;;26.33;23.67;;;;;;;;5084199;27;46490;-53
2024/03/21 02:54:34;;;;;;;;;19.67;19.67;;;;;;;;5091831;27;45283;-54
2024/03/21 02:56:59;;;;;;;;;18.67;17.67;;;;;;;;5084540;27;45488;-54
2024/03/21 02:59:24;;;;;;;;;19.33;19.33;;;;;;;;5091267;27;45601;-53
2024/03/21 03:01:49;;;;;;;;;20.33;20.33;;;;;;;;5083902;27;45605;-53
2024/03/21 03:04:15;;;;;;;;;18.67;17.33;;;;;;;;5085860;27;45746;-54
2024/03/21 03:06:40;;;;;;;;;23.33;19.67;;;;;;;;5083875;27;45384;-54
2024/03/21 03:09:05;;;;;;;;;21.00;18.00;;;;;;;;5084455;27;46505;-53
2024/03/21 03:11:30;;;;;;;;;17.33;17.33;;;;;;;;5084578;27;45412;-52
2024/03/21 03:13:56;;;;;;;;;23.33;20.67;;;;;;;;5084726;27;45263;-53
2024/03/21 03:16:21;;;;;;;;;17.33;16.33;;;;;;;;5091936;27;45394;-54
2024/03/21 03:18:46;;;;;;;;;21.00;18.33;;;;;;;;5092920;27;45369;-54
2024/03/21 03:21:12;;;;;;;;;22.33;18.67;;;;;;;;5084052;27;45547;-54
2024/03/21 03:23:37;;;;;;;;;18.33;16.00;;;;;;;;5086627;27;45321;-53
2024/03/21 03:26:02;;;;;;;;;21.33;16.33;;;;;;;;5081639;27;45539;-54
2024/03/21 03:28:27;;;;;;;;;19.67;18.00;;;;;;;;5085943;27;45340;-52
2024/03/21 03:30:52;;;;;;;;;25.67;19.67;;;;;;;;5085583;27;46328;-52
2024/03/21 03:36:02;;;;;;;;;17.00;16.00;;;;;;;;5076878;27;45437;-54
2024/03/21 03:38:27;;;;;;;;;20.33;20.00;;;;;;;;5091597;27;45335;-53
2024/03/21 03:40:52;;;;;;;;;18.67;18.00;;;;;;;;5084814;27;45507;-53
2024/03/21 03:43:17;;;;;;;;;19.00;17.33;;;;;;;;5084276;27;45362;-53
2024/03/21 03:45:43;;;;;;;;;21.33;17.33;;;;;;;;5089027;27;45219;-53
2024/03/21 03:48:08;;;;;;;;;22.33;19.00;;;;;;;;5085133;27;45504;-55
2024/03/21 03:50:33;;;;;;;;;25.00;20.67;;;;;;;;5085056;27;45446;-53
2024/03/21 03:52:58;;;;;;;;;19.67;16.67;;;;;;;;5087712;27;45330;-53
2024/03/21 03:55:23;;;;;;;;;20.33;17.33;;;;;;;;5080846;27;45454;-53
2024/03/21 03:57:48;;;;;;;;;23.33;17.00;;;;;;;;5084583;27;45608;-53
2024/03/21 04:00:14;;;;;;;;;19.67;18.67;;;;;;;;5085259;27;45506;-54
2024/03/21 04:02:41;;;;;;;;;15.00;14.00;;;;;;;;5085979;27;45339;-53
2024/03/21 04:05:07;;;;;;;;;13.00;12.33;;;;;;;;5085419;27;45291;-52
2024/03/21 04:07:32;;;;;;;;;21.33;18.00;;;;;;;;5088048;27;45374;-53
2024/03/21 04:09:57;;;;;;;;;19.33;18.33;;;;;;;;5085269;27;45385;-53
2024/03/21 04:12:22;;;;;;;;;16.33;15.67;;;;;;;;5083515;27;45410;-53
2024/03/21 04:14:51;;;;;;;;;19.00;18.67;;;;;;;;5079543;27;45204;-54
2024/03/21 04:17:17;;;;;;;;;20.33;15.67;;;;;;;;5081260;27;45507;-53
2024/03/21 04:19:42;;;;;;;;;17.00;17.00;;;;;;;;5086222;27;46643;-53
2024/03/21 04:22:07;;;;;;;;;17.67;15.33;;;;;;;;5085265;27;45697;-54
2024/03/21 04:24:32;;;;;;;;;17.67;14.67;;;;;;;;5084394;27;45798;-53
2024/03/21 04:26:58;;;;;;;;;19.33;16.67;;;;;;;;5085955;27;45642;-53
2024/03/21 04:29:23;;;;;;;;;20.00;15.33;;;;;;;;5085827;27;45687;-53
2024/03/21 04:31:48;;;;;;;;;15.67;14.67;;;;;;;;5083161;27;45728;-52
2024/03/21 04:34:14;;;;;;;;;15.67;15.67;;;;;;;;5086572;27;45458;-52
2024/03/21 04:36:39;;;;;;;;;16.33;13.67;;;;;;;;5088314;27;45631;-54
2024/03/21 04:39:04;;;;;;;;;15.00;15.00;;;;;;;;5082837;27;45867;-53
2024/03/21 04:41:30;;;;;;;;;15.33;13.33;;;;;;;;5094952;27;45216;-53
2024/03/21 04:43:55;;;;;;;;;14.00;13.00;;;;;;;;5087338;27;45484;-54
2024/03/21 04:46:20;;;;;;;;;17.00;13.67;;;;;;;;5085698;27;45230;-55
2024/03/21 04:48:45;;;;;;;;;15.00;13.33;;;;;;;;5091597;27;46203;-54
2024/03/21 04:51:10;;;;;;;;;14.00;14.00;;;;;;;;5091578;27;45373;-56
2024/03/21 04:53:36;;;;;;;;;15.33;15.33;;;;;;;;5087352;27;45303;-55
2024/03/21 04:56:04;;;;;;;;;14.67;13.00;;;;;;;;5093741;27;45588;-55
2024/03/21 04:58:29;;;;;;;;;10.00;10.00;;;;;;;;5093558;27;46417;-52
2024/03/21 05:00:55;;;;;;;;;15.33;13.33;;;;;;;;5091992;27;45377;-52
2024/03/21 05:03:21;;;;;;;;;13.67;12.67;;;;;;;;5086223;27;45567;-54
2024/03/21 05:05:46;;;;;;;;;14.33;13.00;;;;;;;;5093399;27;45817;-54
2024/03/21 05:08:11;;;;;;;;;14.33;14.00;;;;;;;;5091606;27;46869;-54
2024/03/21 05:10:36;;;;;;;;;16.33;12.00;;;;;;;;5093497;27;45483;-54
2024/03/21 05:13:02;;;;;;;;;16.33;16.33;;;;;;;;5093828;27;45427;-52
2024/03/21 05:15:27;;;;;;;;;14.67;13.33;;;;;;;;5094799;27;45503;-54
2024/03/21 05:17:53;;;;;;;;;15.33;12.00;;;;;;;;5081515;27;45397;-54
2024/03/21 05:20:20;;;;;;;;;15.00;13.33;;;;;;;;5093691;27;45389;-54
2024/03/21 05:22:46;;;;;;;;;13.67;13.00;;;;;;;;5091311;27;45358;-54
2024/03/21 05:25:11;;;;;;;;;12.33;12.33;;;;;;;;5095218;27;46410;-53
2024/03/21 05:27:36;;;;;;;;;12.67;12.67;;;;;;;;5086345;27;46642;-55
2024/03/21 05:30:02;;;;;;;;;13.67;11.33;;;;;;;;5082123;27;45372;-55
2024/03/21 05:32:28;;;;;;;;;13.67;13.67;;;;;;;;5085710;27;45396;-55
2024/03/21 05:34:53;;;;;;;;;14.00;12.00;;;;;;;;5092357;27;45306;-54
2024/03/21 05:37:18;;;;;;;;;14.00;13.00;;;;;;;;5092329;27;45491;-54
2024/03/21 05:39:45;;;;;;;;;17.67;13.00;;;;;;;;5087222;27;45438;-54
2024/03/21 05:42:12;;;;;;;;;14.00;11.67;;;;;;;;5085446;27;45476;-51
2024/03/21 05:44:37;;;;;;;;;17.00;14.00;;;;;;;;5087875;27;45342;-55
2024/03/21 05:47:18;;;;;;;;;13.33;13.33;;;;;;;;5082145;27;45470;-54
2024/03/21 05:49:43;;;;;;;;;12.67;11.00;;;;;;;;5084047;27;45455;-53
2024/03/21 05:52:08;;;;;;;;;20.67;15.00;;;;;;;;5085302;27;45421;-54
2024/03/21 05:54:33;;;;;;;;;17.33;13.00;;;;;;;;5088975;27;45516;-54
2024/03/21 05:56:59;;;;;;;;;18.00;14.00;;;;;;;;5085742;27;45528;-55
2024/03/21 05:59:24;;;;;;;;;15.00;15.00;;;;;;;;5083247;27;45627;-54
2024/03/21 06:01:49;;;;;;;;;17.00;15.33;;;;;;;;5088036;27;45648;-55
2024/03/21 06:04:14;;;;;;;;;16.33;15.67;;;;;;;;5088324;27;45324;-55
2024/03/21 06:06:41;;;;;;;;;14.33;13.33;;;;;;;;5083063;27;46351;-54
2024/03/21 06:09:10;;;;;;;;;16.67;14.33;;;;;;;;5081414;27;45460;-52
2024/03/21 06:11:35;;;;;;;;;16.67;14.00;;;;;;;;5089329;27;45208;-53
2024/03/21 06:14:00;;;;;;;;;14.00;14.00;;;;;;;;5089200;27;45448;-52
2024/03/21 06:16:25;;;;;;;;;20.67;17.33;;;;;;;;5079224;27;45584;-55
2024/03/21 06:18:51;;;;;;;;;20.00;15.67;;;;;;;;5078720;27;45393;-55
2024/03/21 06:21:16;;;;;;;;;14.67;14.67;;;;;;;;5079646;27;45853;-55
2024/03/21 06:23:41;;;;;;;;;20.00;16.33;;;;;;;;5080321;27;45700;-55
2024/03/21 06:26:06;;;;;;;;;14.00;14.00;;;;;;;;5077967;27;45504;-55
2024/03/21 06:28:31;;;;;;;;;16.33;16.00;;;;;;;;5077528;27;45431;-55
2024/03/21 06:30:57;;;;;;;;;19.00;16.67;;;;;;;;5077612;27;45490;-55
2024/03/21 06:33:22;;;;;;;;;18.00;17.00;;;;;;;;5079724;27;45308;-54
2024/03/21 06:35:47;;;;;;;;;18.00;16.67;;;;;;;;5079082;27;46938;-55
2024/03/21 06:38:12;;;;;;;;;20.33;18.00;;;;;;;;5079995;27;45211;-54
2024/03/21 06:40:37;;;;;;;;;16.67;16.67;;;;;;;;5077943;27;45502;-53
2024/03/21 06:43:03;;;;;;;;;19.00;16.00;;;;;;;;5079818;27;45276;-54
2024/03/21 06:45:29;;;;;;;;;18.67;15.33;;;;;;;;5079606;27;46272;-53
2024/03/21 06:47:54;;;;;;;;;20.67;18.00;;;;;;;;5078718;28;45268;-54
2024/03/21 06:50:19;;;;;;;;;21.67;18.00;;;;;;;;5079575;28;45329;-53
2024/03/21 06:52:46;;;;;;;;;18.67;15.67;;;;;;;;5080089;27;45624;-54
2024/03/21 06:55:12;;;;;;;;;16.33;16.33;;;;;;;;5076652;27;45401;-54
2024/03/21 06:57:37;;;;;;;;;20.33;18.33;;;;;;;;5079208;27;45394;-54
2024/03/21 07:00:03;;;;;;;;;20.67;17.00;;;;;;;;5079711;28;45409;-51
2024/03/21 07:02:29;;;;;;;;;18.67;17.67;;;;;;;;5079669;27;45560;-52
2024/03/21 07:04:54;;;;;;;;;15.33;15.33;;;;;;;;5079588;27;46293;-53
2024/03/21 07:07:19;;;;;;;;;18.33;17.33;;;;;;;;5078667;28;45309;-53
2024/03/21 07:09:44;;;;;;;;;24.00;18.00;;;;;;;;5079630;27;45286;-52
2024/03/21 07:12:10;;;;;;;;;25.67;23.00;;;;;;;;5077904;27;45619;-53
2024/03/21 07:14:35;;;;;;;;;21.33;18.67;;;;;;;;5079908;27;46638;-53
2024/03/21 07:17:00;;;;;;;;;20.67;20.33;;;;;;;;5078428;28;45194;-53
2024/03/21 07:19:34;;;;;;;;;22.33;19.00;;;;;;;;5078696;27;45283;-52
2024/03/21 07:22:04;;;;;;;;;27.00;21.67;;;;;;;;5076688;27;45472;-52
2024/03/21 07:24:29;;;;;;;;;25.00;24.33;;;;;;;;5077927;28;45324;-52
2024/03/21 07:26:54;;;;;;;;;23.00;18.00;;;;;;;;5078072;27;45423;-52
2024/03/21 07:29:20;;;;;;;;;26.67;24.33;;;;;;;;5078222;27;45862;-53
2024/03/21 07:31:45;;;;;;;;;25.33;22.33;;;;;;;;5083333;27;45527;-53
2024/03/21 07:34:10;;;;;;;;;30.67;24.00;;;;;;;;5082944;27;45361;-53
2024/03/21 07:36:36;;;;;;;;;25.00;24.00;;;;;;;;5088092;27;45743;-53
2024/03/21 07:39:01;;;;;;;;;24.00;23.00;;;;;;;;5074820;27;45496;-54
2024/03/21 07:41:26;;;;;;;;;28.33;23.67;;;;;;;;5077723;27;45409;-53
2024/03/21 07:43:51;;;;;;;;;24.33;21.67;;;;;;;;5081273;27;45527;-54
2024/03/21 07:46:18;;;;;;;;;32.00;27.33;;;;;;;;5082213;27;45507;-54
2024/03/21 07:48:43;;;;;;;;;30.33;26.67;;;;;;;;5082594;27;45436;-53
2024/03/21 07:51:09;;;;;;;;;28.33;26.00;;;;;;;;5080811;27;45289;-52
2024/03/21 07:53:34;;;;;;;;;24.33;24.33;;;;;;;;5083020;27;46363;-55
2024/03/21 07:55:59;;;;;;;;;29.33;26.33;;;;;;;;5084604;27;45386;-54
2024/03/21 07:58:24;;;;;;;;;26.67;25.67;;;;;;;;5078266;27;45590;-53
2024/03/21 08:00:49;;;;;;;;;24.00;23.00;;;;;;;;5084741;27;45316;-53
2024/03/21 08:03:14;;;;;;;;;27.67;23.00;;;;;;;;5077567;27;47346;-55
2024/03/21 08:05:40;;;;;;;;;28.33;22.00;;;;;;;;5077058;27;45489;-54
2024/03/21 08:08:05;;;;;;;;;33.00;26.67;;;;;;;;5067313;27;45489;-55
2024/03/21 08:10:30;;;;;;;;;35.33;29.67;;;;;;;;5075903;27;45464;-54
2024/03/21 08:12:55;;;;;;;;;29.00;26.67;;;;;;;;5077637;27;46142;-54
2024/03/21 08:15:21;;;;;;;;;28.00;27.33;;;;;;;;5077366;27;45406;-54
2024/03/21 08:17:46;;;;;;;;;29.67;26.67;;;;;;;;5077490;27;45409;-55
2024/03/21 08:20:11;;;;;;;;;29.33;27.67;;;;;;;;5077438;27;45454;-55
2024/03/21 08:22:36;;;;;;;;;33.00;26.00;;;;;;;;5076310;27;47958;-53
2024/03/21 08:25:02;;;;;;;;;31.67;27.67;;;;;;;;5077383;27;45582;-56
2024/03/21 08:27:28;;;;;;;;;34.00;28.33;;;;;;;;5078334;27;45442;-55
2024/03/21 08:29:54;;;;;;;;;32.00;26.00;;;;;;;;5075208;27;45472;-54
2024/03/21 08:32:21;;;;;;;;;28.67;25.33;;;;;;;;5076515;27;46305;-56
2024/03/21 08:34:46;;;;;;;;;29.67;26.00;;;;;;;;5076764;27;45423;-54
2024/03/21 08:37:12;;;;;;;;;27.67;26.67;;;;;;;;5074690;27;45372;-53
2024/03/21 08:39:37;;;;;;;;;29.33;27.00;;;;;;;;5076950;27;45650;-54
2024/03/21 08:42:02;;;;;;;;;29.67;24.67;;;;;;;;5076300;27;46305;-54
2024/03/21 08:44:27;;;;;;;;;27.00;25.67;;;;;;;;5077503;27;45404;-53
2024/03/21 08:46:52;;;;;;;;;25.00;24.00;;;;;;;;5077540;27;45514;-54
2024/03/21 08:49:17;;;;;;;;;29.33;26.00;;;;;;;;5075679;27;45365;-54
2024/03/21 08:51:43;;;;;;;;;28.33;25.67;;;;;;;;5077032;27;45961;-54
2024/03/21 08:54:08;;;;;;;;;31.67;27.33;;;;;;;;5075603;27;45473;-54
2024/03/21 08:56:34;;;;;;;;;25.33;25.00;;;;;;;;5076435;27;45484;-56
2024/03/21 08:58:59;;;;;;;;;24.67;23.67;;;;;;;;5074927;27;45496;-55
2024/03/21 09:01:24;;;;;;;;;24.33;23.33;;;;;;;;5076572;27;45280;-54
2024/03/21 09:03:49;;;;;;;;;24.33;23.00;;;;;;;;5068235;27;45962;-54
2024/03/21 09:06:15;;;;;;;;;28.67;24.67;;;;;;;;5078950;27;45445;-55
2024/03/21 09:08:40;;;;;;;;;30.33;27.00;;;;;;;;5077900;27;45677;-55
2024/03/21 09:11:05;;;;;;;;;26.33;26.00;;;;;;;;5077349;27;45448;-55
2024/03/21 09:13:31;;;;;;;;;24.00;22.33;;;;;;;;5078341;27;45487;-56
2024/03/21 09:15:56;;;;;;;;;27.33;25.67;;;;;;;;5079750;27;45864;-54
2024/03/21 09:18:22;;;;;;;;;23.67;20.33;;;;;;;;5077909;27;45365;-55
2024/03/21 09:20:47;;;;;;;;;26.67;24.00;;;;;;;;5082961;27;45413;-54
2024/03/21 09:23:13;;;;;;;;;30.33;25.67;;;;;;;;5081029;27;45833;-55
2024/03/21 09:25:38;;;;;;;;;27.67;24.67;;;;;;;;5081733;27;45575;-55
2024/03/21 09:28:04;;;;;;;;;22.67;22.67;;;;;;;;5075160;27;45366;-53
2024/03/21 09:30:29;;;;;;;;;26.33;24.00;;;;;;;;5081108;27;46847;-55
2024/03/21 09:32:54;;;;;;;;;26.67;25.00;;;;;;;;5078738;27;45458;-55
2024/03/21 09:35:19;;;;;;;;;27.33;25.67;;;;;;;;5081013;27;45394;-55
2024/03/21 09:37:44;;;;;;;;;32.00;26.33;;;;;;;;5081825;27;45556;-54
2024/03/21 09:40:10;;;;;;;;;26.00;24.67;;;;;;;;5080037;27;45441;-55
2024/03/21 09:42:36;;;;;;;;;22.67;22.33;;;;;;;;5077561;27;46466;-58
2024/03/21 09:45:01;;;;;;;;;25.33;24.33;;;;;;;;5075653;27;45387;-55
2024/03/21 09:47:30;;;;;;;;;26.00;21.33;;;;;;;;5075978;27;45582;-55
2024/03/21 09:49:55;;;;;;;;;25.00;24.00;;;;;;;;5079817;27;47260;-54
2024/03/21 09:52:23;;;;;;;;;25.67;23.33;;;;;;;;5079523;27;47196;-56
2024/03/21 09:54:49;;;;;;;;;23.33;18.67;;;;;;;;5070629;27;45451;-56
2024/03/21 09:57:14;;;;;;;;;24.33;22.67;;;;;;;;5075730;27;45620;-57
2024/03/21 09:59:40;;;;;;;;;23.33;20.00;;;;;;;;5082452;27;46963;-56
2024/03/21 10:02:08;;;;;;;;;26.67;26.00;;;;;;;;5081362;27;45378;-57
2024/03/21 10:04:43;;;;;;;;;20.00;20.00;;;;;;;;5067334;27;45362;-57
2024/03/21 10:07:17;;;;;;;;;29.67;24.67;;;;;;;;5062366;28;45362;-57
2024/03/21 10:09:45;;;;;;;;;25.00;22.67;;;;;;;;5071059;28;45338;-57
2024/03/21 10:12:10;;;;;;;;;21.33;21.00;;;;;;;;5077433;28;45291;-57
2024/03/21 10:14:36;;;;;;;;;27.67;21.67;;;;;;;;5080882;27;45349;-57
2024/03/21 10:17:03;;;;;;;;;25.67;22.00;;;;;;;;5078001;27;45624;-57
2024/03/21 10:19:28;;;;;;;;;22.00;19.67;;;;;;;;5080504;27;46144;-57
2024/03/21 10:21:53;;;;;;;;;25.67;23.33;;;;;;;;5078936;28;45224;-57
2024/03/21 10:24:18;;;;;;;;;21.33;19.00;;;;;;;;5080441;27;45430;-57
2024/03/21 10:26:43;;;;;;;;;21.33;19.00;;;;;;;;5080743;27;45356;-57
2024/03/21 10:29:09;;;;;;;;;25.33;20.00;;;;;;;;5079738;27;45442;-57
2024/03/21 10:31:36;;;;;;;;;26.00;23.00;;;;;;;;5066905;28;45224;-57
2024/03/21 10:34:01;;;;;;;;;23.33;19.67;;;;;;;;5080364;27;45485;-57
2024/03/21 10:36:26;;;;;;;;;19.67;19.67;;;;;;;;5080740;27;45459;-57
2024/03/21 10:38:52;;;;;;;;;24.33;24.00;;;;;;;;5080526;27;45286;-57
2024/03/21 10:41:18;;;;;;;;;21.67;21.67;;;;;;;;5079334;27;45571;-57
2024/03/21 10:43:45;;;;;;;;;23.67;20.67;;;;;;;;5080495;27;45851;-57
2024/03/21 10:46:11;;;;;;;;;21.00;20.00;;;;;;;;5076884;28;45549;-57
2024/03/21 10:48:38;;;;;;;;;21.00;18.33;;;;;;;;5079769;28;45461;-57
2024/03/21 10:51:18;;;;;;;;;19.00;18.33;;;;;;;;5079645;27;45298;-57
2024/03/21 10:53:59;;;;;;;;;16.00;14.33;;;;;;;;5079563;27;45361;-58
2024/03/21 10:56:35;;;;;;;;;25.00;23.00;;;;;;;;5068329;28;45941;-57
2024/03/21 10:59:00;;;;;;;;;24.00;22.00;;;;;;;;5078753;27;45740;-57
2024/03/21 11:01:37;;;;;;;;;24.33;22.33;;;;;;;;5079977;27;45396;-58
2024/03/21 11:04:03;;;;;;;;;25.33;22.67;;;;;;;;5073200;27;45368;-57
2024/03/21 11:06:35;;;;;;;;;21.67;21.00;;;;;;;;5081261;27;45412;-57
2024/03/21 11:09:02;;;;;;;;;24.00;22.67;;;;;;;;5081130;27;45848;-57
2024/03/21 11:11:29;;;;;;;;;19.67;18.33;;;;;;;;5082354;27;45357;-57
2024/03/21 11:13:54;;;;;;;;;19.33;18.33;;;;;;;;5080290;27;45338;-57
2024/03/21 11:16:20;;;;;;;;;22.67;19.00;;;;;;;;5080980;27;45383;-58
2024/03/21 11:18:46;;;;;;;;;21.00;21.00;;;;;;;;5071647;27;46290;-58
2024/03/21 11:21:12;;;;;;;;;19.00;17.00;;;;;;;;5081433;27;45405;-58
2024/03/21 11:23:38;;;;;;;;;18.67;17.67;;;;;;;;5080737;27;45295;-57
2024/03/21 11:26:03;;;;;;;;;19.00;17.00;;;;;;;;5081517;27;45440;-58
2024/03/21 11:28:28;;;;;;;;;20.33;17.67;;;;;;;;5078886;27;46693;-58
2024/03/21 11:30:54;;;;;;;;;18.25;17.50;;;;;;;;5074705;27;45687;-58
2024/03/21 11:33:19;;;;;;;;;17.67;17.67;;;;;;;;5080332;27;45394;-58
2024/03/21 11:35:45;;;;;;;;;27.33;20.00;;;;;;;;5081421;27;45564;-57
2024/03/21 11:38:11;;;;;;;;;19.33;19.33;;;;;;;;5080307;27;46476;-58
2024/03/21 11:40:36;;;;;;;;;19.00;18.00;;;;;;;;5081216;27;45445;-58
2024/03/21 11:43:02;;;;;;;;;19.00;18.33;;;;;;;;5080493;27;45357;-58
2024/03/21 11:45:27;;;;;;;;;18.33;18.00;;;;;;;;5081409;27;45295;-58
2024/03/21 11:47:53;;;;;;;;;20.67;18.67;;;;;;;;5078350;27;45433;-58
2024/03/21 11:50:18;;;;;;;;;19.00;17.50;;;;;;;;5076158;27;45451;-58
2024/03/21 11:52:43;;;;;;;;;17.50;16.00;;;;;;;;5078394;27;45229;-58
2024/03/21 11:55:08;;;;;;;;;18.75;17.00;;;;;;;;5077556;27;45498;-58
2024/03/21 11:57:33;;;;;;;;;18.50;18.50;;;;;;;;5077095;27;45829;-58
2024/03/21 11:59:59;;;;;;;;;20.00;19.67;;;;;;;;5073384;27;45357;-57
2024/03/21 12:02:24;;;;;;;;;16.67;16.67;;;;;;;;5079631;27;45531;-58
2024/03/21 12:04:49;;;;;;;;;13.00;13.00;;;;;;;;5077050;27;45451;-57
2024/03/21 12:07:15;;;;;;;;;17.00;14.00;;;;;;;;5079885;27;46189;-58
2024/03/21 12:09:40;;;;;;;;;14.75;13.00;;;;;;;;5081781;27;45474;-58
2024/03/21 12:12:08;;;;;;;;;14.25;12.00;;;;;;;;5079838;27;45510;-58
2024/03/21 12:14:33;;;;;;;;;9.75;9.75;;;;;;;;5081860;27;45294;-57
2024/03/21 12:16:58;;;;;;;;;11.75;10.00;;;;;;;;5074435;27;45341;-57
2024/03/21 12:19:23;;;;;;;;;10.00;10.00;;;;;;;;5077981;27;45303;-57
2024/03/21 12:21:49;;;;;;;;;22.33;18.33;;;;;;;;5080630;27;45258;-57
2024/03/21 12:24:14;;;;;;;;;20.67;13.33;;;;;;;;5078187;27;45238;-57
2024/03/21 12:26:39;;;;;;;;;19.50;18.00;;;;;;;;5080251;27;45422;-57
2024/03/21 12:29:04;;;;;;;;;15.33;14.33;;;;;;;;5080736;27;45335;-57
2024/03/21 12:31:29;;;;;;;;;18.00;18.00;;;;;;;;5074131;27;45310;-56
2024/03/21 12:33:56;;;;;;;;;18.33;16.00;;;;;;;;5080932;27;45446;-57
2024/03/21 12:36:22;;;;;;;;;20.25;16.75;;;;;;;;5079625;27;45669;-57
2024/03/21 12:38:47;;;;;;;;;19.67;17.67;;;;;;;;5080848;27;45251;-57
2024/03/21 12:41:14;;;;;;;;;10.67;8.67;;;;;;;;5079625;27;45455;-57
2024/03/21 12:43:39;;;;;;;;;21.00;16.25;;;;;;;;5080928;27;45535;-57
2024/03/21 12:46:04;;;;;;;;;17.67;17.67;;;;;;;;5077298;27;46168;-57
2024/03/21 12:48:29;;;;;;;;;16.00;14.25;;;;;;;;5080758;27;45322;-57
2024/03/21 12:50:55;;;;;;;;;15.50;15.00;;;;;;;;5079411;27;45307;-57
2024/03/21 12:53:21;;;;;;;;;13.00;12.25;;;;;;;;5081734;27;45505;-57
2024/03/21 12:55:46;;;;;;;;;15.67;15.33;;;;;;;;5083153;27;46477;-57
2024/03/21 12:58:12;;;;;;;;;18.25;16.50;;;;;;;;5083882;27;45449;-57
2024/03/21 13:00:37;;;;;;;;;19.00;15.67;;;;;;;;5083225;27;45302;-57
2024/03/21 13:03:03;;;;;;;;;17.50;14.75;;;;;;;;5081960;27;45334;-56
2024/03/21 13:05:28;;;;;;;;;17.00;15.75;;;;;;;;5077827;27;48207;-57
2024/03/21 13:07:53;;;;;;;;;19.33;15.00;;;;;;;;5083281;27;45489;-56
2024/03/21 13:10:19;;;;;;;;;16.25;14.00;;;;;;;;5076043;28;45296;-57
2024/03/21 13:12:44;;;;;;;;;13.33;11.33;;;;;;;;5077590;27;45306;-57
2024/03/21 13:15:09;;;;;;;;;16.25;14.50;;;;;;;;5081079;27;47238;-56
2024/03/21 13:17:34;;;;;;;;;17.00;14.00;;;;;;;;5074040;27;45376;-56
2024/03/21 13:19:59;;;;;;;;;14.75;14.00;;;;;;;;5083186;27;45256;-57
2024/03/21 13:22:25;;;;;;;;;15.00;14.00;;;;;;;;5083688;27;45427;-56
2024/03/21 13:24:53;;;;;;;;;16.00;16.00;;;;;;;;5082877;27;45535;-56
2024/03/21 13:27:21;;;;;;;;;11.00;11.00;;;;;;;;5083297;27;45445;-56
2024/03/21 13:29:46;;;;;;;;;9.00;9.00;;;;;;;;5081525;27;45287;-56
2024/03/21 13:32:12;;;;;;;;;14.00;12.67;;;;;;;;5077035;27;45489;-56
2024/03/21 13:34:37;;;;;;;;;9.50;9.25;;;;;;;;5082298;27;46243;-57
2024/03/21 13:37:02;;;;;;;;;17.00;12.00;;;;;;;;5083321;27;45494;-56
2024/03/21 13:39:27;;;;;;;;;11.50;10.00;;;;;;;;5082617;27;45487;-56
2024/03/21 13:41:52;;;;;;;;;11.00;9.75;;;;;;;;5083742;27;45724;-56
2024/03/21 13:44:19;;;;;;;;;14.50;11.75;;;;;;;;5081728;27;45995;-56
2024/03/21 13:46:46;;;;;;;;;10.25;7.75;;;;;;;;5081372;27;45413;-56
2024/03/21 13:49:11;;;;;;;;;9.25;8.00;;;;;;;;5082106;27;45322;-56
2024/03/21 13:51:36;;;;;;;;;10.75;10.75;;;;;;;;5083644;27;45347;-56
2024/03/21 13:54:03;;;;;;;;;13.67;13.67;;;;;;;;5081923;27;45321;-57
2024/03/21 13:56:28;;;;;;;;;11.00;8.75;;;;;;;;5083482;27;45504;-56
2024/03/21 13:58:54;;;;;;;;;9.33;9.33;;;;;;;;5082504;27;45585;-56
2024/03/21 14:01:19;;;;;;;;;12.25;10.00;;;;;;;;5082873;27;45294;-56
2024/03/21 14:03:44;;;;;;;;;11.00;11.00;;;;;;;;5075341;27;46076;-56
2024/03/21 14:06:17;;;;;;;;;10.00;8.75;;;;;;;;5081948;27;45722;-56
2024/03/21 14:08:42;;;;;;;;;12.00;10.67;;;;;;;;5077647;27;45349;-56
2024/03/21 14:11:09;;;;;;;;;11.33;11.33;;;;;;;;5082993;27;45582;-56
2024/03/21 14:13:34;;;;;;;;;11.33;11.33;;;;;;;;5081955;27;45329;-56